Time;durP1;ratioP1;P1;durP2;ratioP2;P2;SDS_P1;SDS_P2;PMS_P1;PMS_P2;Temp;Humidity;BMP_temperature;BMP_pressure;BME280_temperature;BME280_humidity;BME280_pressure;Samples;Min_cycle;Max_cycle;Signal;HPM_P1;HPM_P2
2021/03/22 00:00:56;;;;;;;1999.90;999.90;;;21.80;45.40;;;;;;5073525;28;20275;-46
2021/03/22 00:03:24;;;;;;;1999.90;999.90;;;21.70;46.90;;;;;;5073410;28;20171;-53
2021/03/22 00:05:52;;;;;;;1999.90;999.90;;;21.80;45.20;;;;;;5073377;28;20172;-52
2021/03/22 00:08:23;;;;;;;1999.90;999.90;;;22.00;45.60;;;;;;5073468;28;20619;-55
2021/03/22 00:10:51;;;;;;;1999.90;999.90;;;21.80;46.20;;;;;;5073530;28;20627;-50
2021/03/22 00:13:20;;;;;;;1999.90;999.90;;;21.90;46.60;;;;;;5072271;28;20204;-49
2021/03/22 00:15:49;;;;;;;1999.90;999.90;;;21.80;48.20;;;;;;5073326;28;20197;-48
2021/03/22 00:18:20;;;;;;;1999.90;999.90;;;21.60;48.50;;;;;;5073077;28;20496;-54
2021/03/22 00:20:48;;;;;;;1999.90;999.90;;;21.60;47.50;;;;;;5073180;28;20168;-45
2021/03/22 00:23:16;;;;;;;1999.90;999.90;;;21.70;46.80;;;;;;5073059;28;20188;-55
2021/03/22 00:25:43;;;;;;;1999.90;999.90;;;21.60;46.60;;;;;;5073078;28;20164;-44
2021/03/22 00:28:11;;;;;;;1999.90;999.90;;;21.70;46.50;;;;;;5073073;28;20173;-51
2021/03/22 00:30:40;;;;;;;1999.90;999.90;;;21.70;46.00;;;;;;5073041;28;20259;-54
2021/03/22 00:33:08;;;;;;;1999.90;999.90;;;21.60;46.20;;;;;;5073020;28;20243;-51
2021/03/22 00:35:36;;;;;;;1999.90;999.90;;;21.60;45.90;;;;;;5072969;28;20590;-52
2021/03/22 00:38:03;;;;;;;1999.90;999.90;;;21.70;47.70;;;;;;5072937;28;20196;-52
2021/03/22 00:40:32;;;;;;;1999.90;999.90;;;21.50;48.80;;;;;;5072816;28;20242;-55
2021/03/22 00:42:59;;;;;;;1999.90;999.90;;;21.40;48.80;;;;;;5072927;28;20195;-50
2021/03/22 00:45:27;;;;;;;1999.90;999.90;;;21.30;46.70;;;;;;5073001;28;20172;-48
2021/03/22 00:47:54;;;;;;;1999.90;999.90;;;21.30;46.00;;;;;;5073311;28;20218;-56
2021/03/22 00:50:27;;;;;;;1999.90;999.90;;;21.40;46.10;;;;;;5072939;28;20272;-55
2021/03/22 00:52:54;;;;;;;1999.90;999.90;;;21.40;45.80;;;;;;5072966;28;20210;-53
2021/03/22 00:55:21;;;;;;;1999.90;999.90;;;21.40;45.60;;;;;;5072547;28;20248;-56
2021/03/22 00:57:48;;;;;;;1999.90;999.90;;;21.30;47.50;;;;;;5072720;28;20198;-53
2021/03/22 01:00:43;;;;;;;1999.90;999.90;;;21.40;48.10;;;;;;5072653;28;20669;-45
2021/03/22 01:03:14;;;;;;;1999.90;999.90;;;21.40;46.90;;;;;;5072824;28;20589;-55
2021/03/22 01:05:41;;;;;;;1999.90;999.90;;;21.30;49.20;;;;;;5072721;28;20203;-52
2021/03/22 01:08:08;;;;;;;1999.90;999.90;;;21.30;48.20;;;;;;5072631;28;20157;-50
2021/03/22 01:10:41;;;;;;;1999.90;999.90;;;21.20;46.40;;;;;;5072643;28;20226;-55
2021/03/22 01:13:16;;;;;;;1999.90;999.90;;;21.20;47.10;;;;;;5072578;28;20299;-42
2021/03/22 01:15:44;;;;;;;1999.90;999.90;;;21.10;47.00;;;;;;5072644;28;20249;-56
2021/03/22 01:18:12;;;;;;;1999.90;999.90;;;21.10;48.30;;;;;;5072417;28;20692;-52
2021/03/22 01:20:49;;;;;;;1999.90;999.90;;;21.10;47.80;;;;;;5072567;28;20184;-55
2021/03/22 01:23:17;;;;;;;1999.90;999.90;;;21.10;47.10;;;;;;5073079;28;20153;-56
2021/03/22 01:25:44;;;;;;;1999.90;999.90;;;21.10;47.90;;;;;;5076504;28;20255;-54
2021/03/22 01:28:12;;;;;;;1999.90;999.90;;;21.30;45.90;;;;;;5076346;28;20179;-45
2021/03/22 01:30:47;;;;;;;1999.90;999.90;;;21.50;44.00;;;;;;5076587;28;20172;-54
2021/03/22 01:33:17;;;;;;;1999.90;999.90;;;21.60;45.40;;;;;;5076259;28;20523;-53
2021/03/22 01:35:44;;;;;;;1999.90;999.90;;;21.50;48.10;;;;;;5076222;28;20184;-57
2021/03/22 01:38:11;;;;;;;1999.90;999.90;;;21.40;49.10;;;;;;5076123;28;20173;-52
2021/03/22 01:41:07;;;;;;;1999.90;999.90;;;21.20;49.30;;;;;;5076028;28;20200;-54
2021/03/22 01:44:11;;;;;;;1999.90;999.90;;;21.20;48.60;;;;;;5076087;28;20236;-56
2021/03/22 01:46:38;;;;;;;1999.90;999.90;;;21.20;49.80;;;;;;5076001;28;20178;-55
2021/03/22 01:49:06;;;;;;;1999.90;999.90;;;21.20;48.40;;;;;;5075981;28;20663;-55
2021/03/22 01:51:35;;;;;;;1999.90;999.90;;;21.20;49.20;;;;;;5075863;28;20176;-56
2021/03/22 01:54:02;;;;;;;1999.90;999.90;;;21.20;49.40;;;;;;5075979;28;20168;-53
2021/03/22 01:56:41;;;;;;;1999.90;999.90;;;21.20;49.00;;;;;;5075729;28;20220;-51
2021/03/22 01:59:11;;;;;;;1999.90;999.90;;;21.20;47.60;;;;;;5075763;28;20192;-56
2021/03/22 02:01:39;;;;;;;1999.90;999.90;;;21.20;49.00;;;;;;5076024;28;20571;-55
2021/03/22 02:04:06;;;;;;;1999.90;999.90;;;21.20;49.90;;;;;;5075724;28;20198;-56
2021/03/22 02:06:35;;;;;;;1999.90;999.90;;;21.10;49.90;;;;;;5075682;28;20252;-51
2021/03/22 02:09:03;;;;;;;1999.90;999.90;;;21.00;48.30;;;;;;5075666;28;20559;-43
2021/03/22 02:11:33;;;;;;;1999.90;999.90;;;21.10;47.80;;;;;;5075754;28;20169;-53
2021/03/22 02:14:03;;;;;;;1999.90;999.90;;;21.10;47.50;;;;;;5075590;28;20622;-53
2021/03/22 02:16:58;;;;;;;1999.90;999.90;;;21.10;48.70;;;;;;5075613;28;20628;-55
2021/03/22 02:20:01;;;;;;;1999.90;999.90;;;21.10;48.20;;;;;;5075396;28;20265;-53
2021/03/22 02:22:41;;;;;;;1999.90;999.90;;;21.00;48.80;;;;;;5075400;28;20210;-48
2021/03/22 02:25:38;;;;;;;1999.90;999.90;;;20.90;49.70;;;;;;5075334;28;20161;-48
2021/03/22 02:28:16;;;;;;;1999.90;999.90;;;20.70;50.50;;;;;;5075430;28;20171;-42
2021/03/22 02:30:58;;;;;;;1999.90;999.90;;;20.60;50.90;;;;;;5075283;28;20156;-56
2021/03/22 02:33:28;;;;;;;1999.90;999.90;;;20.40;51.30;;;;;;5075248;28;20210;-54
2021/03/22 02:36:14;;;;;;;1999.90;999.90;;;20.30;51.60;;;;;;5074156;28;20245;-56
2021/03/22 02:38:46;;;;;;;1999.90;999.90;;;20.20;52.20;;;;;;5075004;28;20237;-56
2021/03/22 02:41:18;;;;;;;1999.90;999.90;;;20.10;51.70;;;;;;5075135;28;20163;-49
2021/03/22 02:44:06;;;;;;;1999.90;999.90;;;20.20;50.60;;;;;;5075040;28;20168;-56
2021/03/22 02:46:35;;;;;;;1999.90;999.90;;;20.40;50.00;;;;;;5075078;28;20153;-55
2021/03/22 02:49:07;;;;;;;1999.90;999.90;;;20.50;50.80;;;;;;5075024;28;20179;-55
2021/03/22 02:51:55;;;;;;;1999.90;999.90;;;20.50;50.60;;;;;;5074998;28;20157;-53
2021/03/22 02:54:38;;;;;;;1999.90;999.90;;;20.50;50.80;;;;;;5074796;28;20168;-56
2021/03/22 02:57:16;;;;;;;1999.90;999.90;;;20.50;51.30;;;;;;5074913;28;20175;-56
2021/03/22 03:00:03;;;;;;;1999.90;999.90;;;20.40;51.80;;;;;;5074569;28;20199;-54
2021/03/22 03:02:33;;;;;;;1999.90;999.90;;;20.30;52.10;;;;;;5074623;28;20252;-52
2021/03/22 03:05:12;;;;;;;1999.90;999.90;;;20.20;52.60;;;;;;5074539;28;20161;-55
2021/03/22 03:07:40;;;;;;;1999.90;999.90;;;20.10;52.50;;;;;;5074574;28;20148;-53
2021/03/22 03:10:09;;;;;;;1999.90;999.90;;;20.00;52.30;;;;;;5074546;28;20173;-47
2021/03/22 03:12:36;;;;;;;1999.90;999.90;;;19.90;52.30;;;;;;5074562;28;20215;-52
2021/03/22 03:15:08;;;;;;;1999.90;999.90;;;19.90;52.50;;;;;;5074430;28;20527;-56
2021/03/22 03:17:35;;;;;;;1999.90;999.90;;;19.80;52.30;;;;;;5074524;28;20153;-56
2021/03/22 03:20:05;;;;;;;1999.90;999.90;;;19.80;52.80;;;;;;5074095;28;20212;-49
2021/03/22 03:22:33;;;;;;;1999.90;999.90;;;19.80;53.10;;;;;;5074180;28;20164;-50
2021/03/22 03:25:00;;;;;;;1999.90;999.90;;;19.70;53.30;;;;;;5074110;28;20172;-45
2021/03/22 03:27:27;;;;;;;1999.90;999.90;;;19.60;53.80;;;;;;5074103;28;20167;-51
2021/03/22 03:29:53;;;;;;;1999.90;999.90;;;19.70;53.80;;;;;;5074024;28;20528;-56
2021/03/22 03:32:21;;;;;;;1999.90;999.90;;;19.60;53.90;;;;;;5073955;28;20631;-51
2021/03/22 03:34:48;;;;;;;1999.90;999.90;;;19.50;53.90;;;;;;5073998;28;20160;-56
2021/03/22 03:37:15;;;;;;;1999.90;999.90;;;19.40;54.50;;;;;;5073841;28;20176;-52
2021/03/22 03:39:42;;;;;;;1999.90;999.90;;;19.40;54.90;;;;;;5073826;28;20740;-56
2021/03/22 03:42:11;;;;;;;1999.90;999.90;;;19.30;55.00;;;;;;5074053;28;20164;-53
2021/03/22 03:44:39;;;;;;;1999.90;999.90;;;19.20;55.50;;;;;;5073950;28;20172;-43
2021/03/22 03:47:07;;;;;;;1999.90;999.90;;;19.20;55.60;;;;;;5073590;28;20230;-52
2021/03/22 03:49:35;;;;;;;1999.90;999.90;;;19.10;56.20;;;;;;5073625;28;20173;-42
2021/03/22 03:52:04;;;;;;;1999.90;999.90;;;19.00;56.00;;;;;;5073665;28;20561;-56
2021/03/22 03:54:31;;;;;;;1999.90;999.90;;;18.90;56.60;;;;;;5073570;28;20168;-57
2021/03/22 03:56:59;;;;;;;1999.90;999.90;;;18.90;57.10;;;;;;5073396;28;20298;-54
2021/03/22 03:59:26;;;;;;;1999.90;999.90;;;18.80;57.40;;;;;;5073434;28;20192;-54
2021/03/22 04:01:53;;;;;;;1999.90;999.90;;;18.80;58.10;;;;;;5073381;28;20165;-57
2021/03/22 04:04:20;;;;;;;1999.90;999.90;;;18.80;58.30;;;;;;5073418;28;20167;-42
2021/03/22 04:06:47;;;;;;;1999.90;999.90;;;18.80;58.10;;;;;;5073340;28;20160;-57
2021/03/22 04:09:15;;;;;;;1999.90;999.90;;;18.80;58.60;;;;;;5073317;28;20165;-55
2021/03/22 04:11:48;;;;;;;1999.90;999.90;;;18.80;58.60;;;;;;5073487;28;20173;-44
2021/03/22 04:14:22;;;;;;;1999.90;999.90;;;18.80;58.70;;;;;;5073200;28;20207;-56
2021/03/22 04:16:50;;;;;;;1999.90;999.90;;;18.70;58.60;;;;;;5073381;28;20199;-56
2021/03/22 04:19:18;;;;;;;1999.90;999.90;;;18.70;59.30;;;;;;5073092;28;20208;-56
2021/03/22 04:21:46;;;;;;;1999.90;999.90;;;18.60;59.10;;;;;;5073178;28;20172;-42
2021/03/22 04:24:14;;;;;;;1999.90;999.90;;;18.60;59.10;;;;;;5073275;28;20259;-50
2021/03/22 04:26:41;;;;;;;1999.90;999.90;;;18.50;59.10;;;;;;5073161;28;20184;-51
2021/03/22 04:29:09;;;;;;;1999.90;999.90;;;18.50;59.60;;;;;;5073037;28;20176;-54
2021/03/22 04:31:39;;;;;;;1999.90;999.90;;;18.40;59.70;;;;;;5073047;28;20177;-56
2021/03/22 04:34:06;;;;;;;1999.90;999.90;;;18.40;60.50;;;;;;5073159;28;20521;-42
2021/03/22 04:36:35;;;;;;;1999.90;999.90;;;18.40;60.80;;;;;;5073013;28;20276;-45
2021/03/22 04:39:06;;;;;;;1999.90;999.90;;;18.40;61.00;;;;;;5072932;28;20204;-57
2021/03/22 04:41:34;;;;;;;1999.90;999.90;;;18.40;61.10;;;;;;5072927;28;20160;-56
2021/03/22 04:44:01;;;;;;;1999.90;999.90;;;18.30;61.40;;;;;;5073131;28;20183;-53
2021/03/22 04:46:28;;;;;;;1999.90;999.90;;;18.30;61.70;;;;;;5072826;28;20164;-54
2021/03/22 04:48:55;;;;;;;1999.90;999.90;;;18.40;61.60;;;;;;5072932;28;20570;-56
2021/03/22 04:51:22;;;;;;;1999.90;999.90;;;18.40;61.30;;;;;;5072915;28;20199;-41
2021/03/22 04:53:49;;;;;;;1999.90;999.90;;;18.30;61.90;;;;;;5072851;28;20630;-41
2021/03/22 04:56:16;;;;;;;1999.90;999.90;;;18.20;61.60;;;;;;5072735;28;20243;-56
2021/03/22 04:58:43;;;;;;;1999.90;999.90;;;18.20;62.20;;;;;;5074135;28;20283;-53
2021/03/22 05:01:10;;;;;;;1999.90;999.90;;;18.20;62.50;;;;;;5076881;28;20187;-51
2021/03/22 05:03:37;;;;;;;1999.90;999.90;;;18.20;62.50;;;;;;5076832;28;20627;-52
2021/03/22 05:06:04;;;;;;;1999.90;999.90;;;18.20;62.10;;;;;;5076830;28;20233;-55
2021/03/22 05:08:31;;;;;;;1999.90;999.90;;;18.20;61.90;;;;;;5076812;28;20255;-56
2021/03/22 05:11:00;;;;;;;1999.90;999.90;;;18.20;62.50;;;;;;5076794;28;20694;-41
2021/03/22 05:13:30;;;;;;;1999.90;999.90;;;18.20;63.30;;;;;;5077021;28;20701;-55
2021/03/22 05:15:57;;;;;;;1999.90;999.90;;;18.10;63.50;;;;;;5076589;28;20183;-54
2021/03/22 05:18:26;;;;;;;1999.90;999.90;;;18.10;63.60;;;;;;5076577;28;20619;-47
2021/03/22 05:21:02;;;;;;;1999.90;999.90;;;18.10;63.50;;;;;;5076491;28;20184;-53
2021/03/22 05:23:30;;;;;;;1999.90;999.90;;;18.20;62.60;;;;;;5076478;28;20615;-56
2021/03/22 05:25:58;;;;;;;1999.90;999.90;;;18.20;64.60;;;;;;5076473;28;20219;-57
2021/03/22 05:28:27;;;;;;;1999.90;999.90;;;18.20;64.50;;;;;;5076371;28;20234;-54
2021/03/22 05:30:54;;;;;;;1999.90;999.90;;;18.20;64.50;;;;;;5076523;28;20176;-45
2021/03/22 05:33:22;;;;;;;1999.90;999.90;;;18.40;64.70;;;;;;5076340;28;20160;-56
2021/03/22 05:35:53;;;;;;;1999.90;999.90;;;18.50;63.60;;;;;;5076330;28;20169;-54
2021/03/22 05:38:20;;;;;;;1999.90;999.90;;;18.60;64.50;;;;;;5076228;28;20145;-56
2021/03/22 05:41:12;;;;;;;1999.90;999.90;;;18.70;63.80;;;;;;5076254;28;20176;-57
2021/03/22 05:43:42;;;;;;;1999.90;999.90;;;18.90;63.00;;;;;;5076147;28;20171;-56
2021/03/22 05:46:30;;;;;;;1999.90;999.90;;;19.10;62.90;;;;;;5076154;28;20169;-56
2021/03/22 05:49:05;;;;;;;1999.90;999.90;;;19.20;61.10;;;;;;5076151;28;20634;-57
2021/03/22 05:51:48;;;;;;;1999.90;999.90;;;19.40;61.90;;;;;;5076018;28;20160;-56
2021/03/22 05:54:42;;;;;;;1999.90;999.90;;;19.50;63.40;;;;;;5075964;28;20217;-56
2021/03/22 05:57:27;;;;;;;1999.90;999.90;;;19.60;62.80;;;;;;5075886;28;20177;-56
2021/03/22 06:00:16;;;;;;;1999.90;999.90;;;19.90;60.60;;;;;;5075802;28;20214;-52
2021/03/22 06:03:21;;;;;;;1999.90;999.90;;;20.10;59.80;;;;;;5075820;28;20157;-57
2021/03/22 06:06:07;;;;;;;1999.90;999.90;;;20.30;60.80;;;;;;5033881;28;20244;-57
2021/03/22 06:08:43;;;;;;;1999.90;999.90;;;20.60;59.10;;;;;;5033685;28;20162;-57
2021/03/22 06:11:15;;;;;;;1999.90;999.90;;;20.80;58.70;;;;;;5061898;28;20180;-57
2021/03/22 06:13:47;;;;;;;1999.90;999.90;;;20.90;58.00;;;;;;5075624;28;20195;-56
2021/03/22 06:16:40;;;;;;;1999.90;999.90;;;21.00;58.00;;;;;;5075643;28;20554;-57
2021/03/22 06:19:13;;;;;;;1999.90;999.90;;;21.20;57.20;;;;;;5075423;28;20180;-57
2021/03/22 06:21:42;;;;;;;1999.90;999.90;;;21.30;57.20;;;;;;5075473;28;20211;-54
2021/03/22 06:24:27;;;;;;;1999.90;999.90;;;21.50;57.20;;;;;;5075393;28;20627;-56
2021/03/22 06:27:00;;;;;;;1999.90;999.90;;;21.60;56.50;;;;;;5075433;28;20161;-49
2021/03/22 06:29:39;;;;;;;1999.90;999.90;;;21.70;55.80;;;;;;5075333;28;20149;-54
2021/03/22 06:32:12;;;;;;;1999.90;999.90;;;21.80;54.30;;;;;;5075311;28;20153;-57
2021/03/22 06:34:45;;;;;;;1999.90;999.90;;;22.00;54.80;;;;;;5075264;28;20310;-57
2021/03/22 06:37:16;;;;;;;1999.90;999.90;;;22.20;53.20;;;;;;5075219;28;20172;-55
2021/03/22 06:39:48;;;;;;;1999.90;999.90;;;22.40;52.90;;;;;;5075036;28;20204;-57
2021/03/22 06:42:23;;;;;;;1999.90;999.90;;;22.60;50.80;;;;;;5075064;28;20180;-57
2021/03/22 06:44:52;;;;;;;1999.90;999.90;;;22.80;50.40;;;;;;5075119;28;20627;-57
2021/03/22 06:47:31;;;;;;;1999.90;999.90;;;23.00;49.30;;;;;;5075023;28;20172;-56
2021/03/22 06:50:25;;;;;;;1999.90;999.90;;;23.20;49.30;;;;;;5074931;28;20176;-49
2021/03/22 06:52:53;;;;;;;1999.90;999.90;;;23.30;48.20;;;;;;5074982;28;20157;-58
2021/03/22 06:55:32;;;;;;;1999.90;999.90;;;23.60;48.00;;;;;;5074625;28;20220;-49
2021/03/22 06:57:59;;;;;;;1999.90;999.90;;;23.70;47.70;;;;;;5074886;28;20624;-57
2021/03/22 07:00:29;;;;;;;1999.90;999.90;;;23.80;47.20;;;;;;5074775;28;20283;-42
2021/03/22 07:03:02;;;;;;;1999.90;999.90;;;24.00;47.10;;;;;;5074721;28;20643;-43
2021/03/22 07:05:33;;;;;;;1999.90;999.90;;;24.10;47.50;;;;;;5074603;28;20240;-53
2021/03/22 07:08:01;;;;;;;1999.90;999.90;;;24.20;45.80;;;;;;5074400;28;20149;-42
2021/03/22 07:10:41;;;;;;;1999.90;999.90;;;24.40;45.60;;;;;;5074254;28;20175;-44
2021/03/22 07:13:19;;;;;;;1999.90;999.90;;;24.60;45.40;;;;;;5074391;28;20171;-42
2021/03/22 07:15:47;;;;;;;1999.90;999.90;;;24.80;44.90;;;;;;5074380;28;20161;-56
2021/03/22 07:18:20;;;;;;;1999.90;999.90;;;25.00;44.30;;;;;;5074284;28;20165;-58
2021/03/22 07:21:03;;;;;;;1999.90;999.90;;;25.20;43.70;;;;;;5073985;28;20180;-57
2021/03/22 07:23:45;;;;;;;1999.90;999.90;;;25.30;43.20;;;;;;5074224;28;20160;-51
2021/03/22 07:26:30;;;;;;;1999.90;999.90;;;25.50;42.50;;;;;;5074082;28;20195;-42
2021/03/22 07:29:18;;;;;;;1999.90;999.90;;;25.60;42.10;;;;;;5074210;28;20180;-57
2021/03/22 07:31:45;;;;;;;1999.90;999.90;;;25.80;41.30;;;;;;5074002;28;20161;-57
2021/03/22 07:34:30;;;;;;;1999.90;999.90;;;26.00;41.40;;;;;;5073887;28;20172;-52
2021/03/22 07:37:26;;;;;;;1999.90;999.90;;;26.30;40.30;;;;;;5073980;28;20199;-47
2021/03/22 07:40:06;;;;;;;1999.90;999.90;;;26.50;39.70;;;;;;5073645;28;20215;-58
2021/03/22 07:42:51;;;;;;;1999.90;999.90;;;26.60;39.80;;;;;;5073779;28;20622;-48
2021/03/22 07:45:36;;;;;;;1999.90;999.90;;;26.70;39.20;;;;;;5073759;28;20168;-57
2021/03/22 07:48:13;;;;;;;1999.90;999.90;;;27.10;38.60;;;;;;5073750;28;20236;-58
2021/03/22 07:50:51;;;;;;;1999.90;999.90;;;27.60;37.80;;;;;;5073681;28;20180;-56
2021/03/22 07:53:30;;;;;;;1999.90;999.90;;;28.10;37.40;;;;;;5073642;28;20650;-48
2021/03/22 07:56:08;;;;;;;1999.90;999.90;;;28.60;35.80;;;;;;5073667;28;20231;-57
2021/03/22 07:58:59;;;;;;;1999.90;999.90;;;29.20;35.10;;;;;;5073493;28;20164;-58
2021/03/22 08:01:29;;;;;;;1999.90;999.90;;;29.80;34.00;;;;;;5073620;28;20157;-58
2021/03/22 08:04:22;;;;;;;1999.90;999.90;;;30.50;33.00;;;;;;5073392;28;20195;-57
2021/03/22 08:07:17;;;;;;;1999.90;999.90;;;31.30;32.30;;;;;;5073406;28;20157;-44
2021/03/22 08:10:05;;;;;;;1999.90;999.90;;;32.00;30.50;;;;;;5073365;28;20168;-54
2021/03/22 08:12:55;;;;;;;1999.90;999.90;;;32.60;29.50;;;;;;5073464;28;20215;-51
2021/03/22 08:15:30;;;;;;;1999.90;999.90;;;33.00;28.90;;;;;;5073293;28;20149;-58
2021/03/22 08:18:26;;;;;;;1999.90;999.90;;;33.40;28.80;;;;;;5073149;28;20156;-43
2021/03/22 08:21:08;;;;;;;1999.90;999.90;;;33.50;28.70;;;;;;5067682;28;20200;-57
2021/03/22 08:23:50;;;;;;;1999.90;999.90;;;34.10;27.50;;;;;;5073055;28;20230;-56
2021/03/22 08:26:49;;;;;;;1999.90;999.90;;;34.30;27.70;;;;;;5073226;28;20206;-56
2021/03/22 08:29:27;;;;;;;1999.90;999.90;;;33.90;27.60;;;;;;5064871;28;20267;-57
2021/03/22 08:32:12;;;;;;;1999.90;999.90;;;34.30;27.00;;;;;;5073041;28;20241;-48
2021/03/22 08:35:01;;;;;;;1999.90;999.90;;;34.90;26.40;;;;;;5072231;28;20169;-57
2021/03/22 08:37:54;;;;;;;1999.90;999.90;;;35.40;26.20;;;;;;5072899;28;20165;-51
2021/03/22 08:41:00;;;;;;;1999.90;999.90;;;35.20;26.00;;;;;;5072753;28;20203;-56
2021/03/22 08:43:50;;;;;;;1999.90;999.90;;;35.60;25.50;;;;;;5030792;28;20219;-54
2021/03/22 08:46:29;;;;;;;1999.90;999.90;;;35.00;26.10;;;;;;5030860;28;20173;-56
2021/03/22 08:48:56;;;;;;;1999.90;999.90;;;35.00;25.80;;;;;;5061347;28;20271;-56
2021/03/22 08:51:33;;;;;;;1999.90;999.90;;;35.40;25.50;;;;;;5072776;28;20180;-51
2021/03/22 08:54:00;;;;;;;1999.90;999.90;;;34.50;26.30;;;;;;5072820;28;20153;-53
2021/03/22 08:56:40;;;;;;;1999.90;999.90;;;34.40;26.30;;;;;;5072449;28;20223;-54
2021/03/22 08:59:10;;;;;;;1999.90;999.90;;;34.10;26.70;;;;;;5072624;28;20600;-55
2021/03/22 09:01:40;;;;;;;1999.90;999.90;;;33.90;27.50;;;;;;5072663;28;20165;-53
2021/03/22 09:04:16;;;;;;;1999.90;999.90;;;34.20;27.00;;;;;;5072533;28;20172;-46
2021/03/22 09:07:10;;;;;;;1999.90;999.90;;;34.30;26.80;;;;;;5072659;28;20197;-50
2021/03/22 09:09:40;;;;;;;1999.90;999.90;;;34.70;26.50;;;;;;5072668;28;20164;-41
2021/03/22 09:12:29;;;;;;;1999.90;999.90;;;34.50;26.20;;;;;;5072557;28;20211;-41
2021/03/22 09:14:58;;;;;;;1999.90;999.90;;;35.20;26.30;;;;;;5072530;28;20195;-49
2021/03/22 09:17:55;;;;;;;1999.90;999.90;;;35.40;25.90;;;;;;5072467;28;20214;-43
2021/03/22 09:20:24;;;;;;;1999.90;999.90;;;35.40;25.60;;;;;;5072235;28;20208;-48
2021/03/22 09:23:02;;;;;;;1999.90;999.90;;;35.30;25.70;;;;;;5072477;28;20161;-41
2021/03/22 09:25:47;;;;;;;1999.90;999.90;;;36.00;25.40;;;;;;5072444;28;20641;-42
2021/03/22 09:28:26;;;;;;;1999.90;999.90;;;36.40;25.10;;;;;;5072363;28;20176;-42
2021/03/22 09:31:26;;;;;;;1999.90;999.90;;;36.80;24.60;;;;;;5072379;28;20635;-44
2021/03/22 09:34:15;;;;;;;1999.90;999.90;;;37.00;24.40;;;;;;5072330;28;20164;-47
2021/03/22 09:36:48;;;;;;;1999.90;999.90;;;36.90;24.30;;;;;;5072267;28;20156;-42
2021/03/22 09:39:18;;;;;;;1999.90;999.90;;;36.90;24.30;;;;;;5071943;28;20200;-43
2021/03/22 09:42:12;;;;;;;1999.90;999.90;;;36.60;24.90;;;;;;5072176;28;20199;-42
2021/03/22 09:44:59;;;;;;;1999.90;999.90;;;36.50;25.00;;;;;;5073576;28;20176;-53
2021/03/22 09:47:33;;;;;;;1999.90;999.90;;;36.40;24.90;;;;;;5075936;28;20676;-55
2021/03/22 09:50:00;;;;;;;1999.90;999.90;;;36.40;24.90;;;;;;5075925;28;20151;-53
2021/03/22 09:52:34;;;;;;;1999.90;999.90;;;36.40;25.20;;;;;;5075645;28;20180;-45
2021/03/22 09:55:22;;;;;;;1999.90;999.90;;;36.20;25.20;;;;;;5075622;28;20219;-56
2021/03/22 09:57:49;;;;;;;1999.90;999.90;;;36.20;25.30;;;;;;5075771;28;20299;-43
2021/03/22 10:00:33;;;;;;;1999.90;999.90;;;35.90;25.40;;;;;;5075574;28;20223;-52
2021/03/22 10:03:20;;;;;;;1999.90;999.90;;;34.80;26.20;;;;;;5075612;28;20160;-44
2021/03/22 10:05:47;;;;;;;1999.90;999.90;;;34.00;27.40;;;;;;5075708;28;20168;-50
2021/03/22 10:08:27;;;;;;;1999.90;999.90;;;33.90;27.60;;;;;;5075628;28;20168;-58
2021/03/22 10:11:01;;;;;;;1999.90;999.90;;;33.50;27.80;;;;;;5075566;28;20611;-58
2021/03/22 10:13:59;;;;;;;1999.90;999.90;;;33.50;28.20;;;;;;5075383;28;20161;-51
2021/03/22 10:16:39;;;;;;;1999.90;999.90;;;33.70;28.00;;;;;;5066959;28;20279;-57
2021/03/22 10:19:18;;;;;;;1999.90;999.90;;;33.40;28.20;;;;;;5075387;28;20247;-55
2021/03/22 10:21:55;;;;;;;1999.90;999.90;;;33.00;28.70;;;;;;5075420;28;20233;-58
2021/03/22 10:24:31;;;;;;;1999.90;999.90;;;33.40;28.20;;;;;;5075127;28;20222;-49
2021/03/22 10:26:59;;;;;;;1999.90;999.90;;;33.30;29.00;;;;;;5075354;28;20218;-56
2021/03/22 10:29:30;;;;;;;1999.90;999.90;;;32.30;29.00;;;;;;5075131;28;20173;-58
2021/03/22 10:32:05;;;;;;;1999.90;999.90;;;32.80;29.30;;;;;;5075190;28;20599;-58
2021/03/22 10:34:45;;;;;;;1999.90;999.90;;;33.30;28.40;;;;;;5075032;28;20164;-57
2021/03/22 10:37:19;;;;;;;1999.90;999.90;;;33.50;28.30;;;;;;5073936;28;20255;-57
2021/03/22 10:39:48;;;;;;;1999.90;999.90;;;33.50;28.10;;;;;;5075058;28;20192;-58
2021/03/22 10:42:37;;;;;;;1999.90;999.90;;;33.20;28.40;;;;;;5074994;28;20164;-52
2021/03/22 10:45:25;;;;;;;1999.90;999.90;;;33.00;28.90;;;;;;5075040;28;20649;-53
2021/03/22 10:47:55;;;;;;;1999.90;999.90;;;32.70;28.80;;;;;;5074986;28;20214;-55
2021/03/22 10:50:31;;;;;;;1999.90;999.90;;;32.60;29.10;;;;;;5075171;28;20509;-53
2021/03/22 10:53:13;;;;;;;1999.90;999.90;;;32.40;29.30;;;;;;5074913;28;20229;-49
2021/03/22 10:55:42;;;;;;;1999.90;999.90;;;32.80;29.20;;;;;;5074169;28;20221;-58
2021/03/22 10:58:26;;;;;;;1999.90;999.90;;;32.60;29.20;;;;;;5074654;28;20496;-44
2021/03/22 11:01:08;;;;;;;1999.90;999.90;;;33.00;28.80;;;;;;5074518;28;20218;-56
2021/03/22 11:03:36;;;;;;;1999.90;999.90;;;33.20;28.80;;;;;;5074551;28;20165;-57
2021/03/22 11:06:14;;;;;;;1999.90;999.90;;;33.20;28.90;;;;;;5074568;28;20188;-59
2021/03/22 11:08:45;;;;;;;1999.90;999.90;;;33.00;29.10;;;;;;5074312;28;20168;-58
2021/03/22 11:11:17;;;;;;;1999.90;999.90;;;32.80;29.00;;;;;;5074580;28;20495;-56
2021/03/22 11:13:49;;;;;;;1999.90;999.90;;;33.00;29.00;;;;;;5074410;28;20175;-59
2021/03/22 11:16:26;;;;;;;1999.90;999.90;;;33.20;28.70;;;;;;5073091;28;20535;-57
2021/03/22 11:18:58;;;;;;;1999.90;999.90;;;32.90;29.30;;;;;;5072701;28;20192;-53
2021/03/22 11:21:27;;;;;;;1999.90;999.90;;;32.90;29.10;;;;;;5074165;28;20169;-57
2021/03/22 11:23:56;;;;;;;1999.90;999.90;;;32.90;29.20;;;;;;5074124;28;20619;-49
2021/03/22 11:26:30;;;;;;;1999.90;999.90;;;32.90;29.20;;;;;;5073829;28;20635;-58
2021/03/22 11:29:15;;;;;;;1999.90;999.90;;;33.10;29.00;;;;;;5074116;28;20182;-56
2021/03/22 11:31:46;;;;;;;1999.90;999.90;;;32.90;29.20;;;;;;5073995;28;20179;-51
2021/03/22 11:34:41;;;;;;;1999.90;999.90;;;32.90;29.40;;;;;;5073800;28;20643;-55
2021/03/22 11:37:27;;;;;;;1999.90;999.90;;;33.50;28.60;;;;;;5073933;28;20184;-55
2021/03/22 11:40:03;;;;;;;1999.90;999.90;;;34.10;28.20;;;;;;5073803;28;20207;-47
2021/03/22 11:42:52;;;;;;;1999.90;999.90;;;34.10;27.70;;;;;;5073714;28;20568;-58
2021/03/22 11:45:32;;;;;;;1999.90;999.90;;;33.60;28.00;;;;;;5073501;28;20267;-59
2021/03/22 11:47:59;;;;;;;1999.90;999.90;;;33.40;28.60;;;;;;5073590;28;20238;-57
2021/03/22 11:50:36;;;;;;;1999.90;999.90;;;33.50;28.70;;;;;;5073650;28;20177;-58
2021/03/22 11:53:05;;;;;;;1999.90;999.90;;;33.50;28.40;;;;;;5073699;28;20214;-52
2021/03/22 11:55:37;;;;;;;1999.90;999.90;;;32.90;29.00;;;;;;5073001;28;20224;-58
2021/03/22 11:58:05;;;;;;;1999.90;999.90;;;33.30;28.80;;;;;;5073585;28;20187;-58
2021/03/22 12:00:36;;;;;;;1999.90;999.90;;;33.40;28.40;;;;;;5073400;28;20529;-58
2021/03/22 12:03:13;;;;;;;1999.90;999.90;;;33.20;28.90;;;;;;5073434;28;20225;-58
2021/03/22 12:05:42;;;;;;;1999.90;999.90;;;33.00;28.80;;;;;;5073352;28;20232;-57
2021/03/22 12:08:41;;;;;;;1999.90;999.90;;;32.90;29.10;;;;;;5073272;28;20204;-57
2021/03/22 12:11:23;;;;;;;1999.90;999.90;;;33.30;28.80;;;;;;5072747;28;20180;-49
2021/03/22 12:13:53;;;;;;;1999.90;999.90;;;33.40;28.90;;;;;;5073149;28;20157;-58
2021/03/22 12:16:36;;;;;;;1999.90;999.90;;;33.30;28.50;;;;;;5073072;28;20180;-57
2021/03/22 12:19:10;;;;;;;1999.90;999.90;;;33.70;28.40;;;;;;5073011;28;20677;-57
2021/03/22 12:21:37;;;;;;;1999.90;999.90;;;34.00;28.20;;;;;;5073227;28;20172;-57
2021/03/22 12:24:05;;;;;;;1999.90;999.90;;;33.80;28.20;;;;;;5073008;28;20630;-58
2021/03/22 12:26:33;;;;;;;1999.90;999.90;;;33.80;28.50;;;;;;5072971;28;20242;-58
2021/03/22 12:29:02;;;;;;;1999.90;999.90;;;33.80;28.40;;;;;;5072945;28;20251;-54
2021/03/22 12:31:48;;;;;;;1999.90;999.90;;;34.10;28.80;;;;;;5072561;28;20658;-50
2021/03/22 12:34:23;;;;;;;1999.90;999.90;;;33.80;28.90;;;;;;5072788;28;20247;-50
2021/03/22 12:36:52;;;;;;;1999.90;999.90;;;33.50;29.20;;;;;;5073008;28;20524;-57